createdAt,value
2017-07-23T00:00:12.234Z,9.67
2017-07-23T00:02:41.152Z,10.20
2017-07-23T00:05:09.341Z,8.57
2017-07-23T00:07:37.867Z,9.23
2017-07-23T00:10:06.822Z,18.03
2017-07-23T00:12:34.969Z,9.77
2017-07-23T00:15:03.310Z,8.63
2017-07-23T00:17:31.429Z,11.50
2017-07-23T00:19:59.740Z,10.20
2017-07-23T00:22:27.996Z,11.30
2017-07-23T00:24:56.143Z,10.90
2017-07-23T00:27:24.290Z,9.97
2017-07-23T00:29:52.395Z,10.07
2017-07-23T00:32:20.568Z,12.50
2017-07-23T00:34:48.701Z,10.00
2017-07-23T00:37:16.811Z,10.83
2017-07-23T00:39:44.978Z,11.33
2017-07-23T00:42:13.100Z,11.63
2017-07-23T00:44:41.235Z,14.30
2017-07-23T00:47:09.376Z,9.60
2017-07-23T00:49:37.530Z,11.53
2017-07-23T00:52:05.647Z,14.60
2017-07-23T00:54:33.825Z,12.57
2017-07-23T00:57:02.705Z,10.13
2017-07-23T00:59:30.881Z,10.73
2017-07-23T01:01:59.830Z,12.23
2017-07-23T01:04:28.893Z,12.07
2017-07-23T01:06:57.097Z,13.33
2017-07-23T01:09:25.242Z,11.13
2017-07-23T01:11:53.615Z,11.63
2017-07-23T01:14:21.741Z,11.50
2017-07-23T01:16:49.879Z,11.47
2017-07-23T01:19:18.041Z,21.67
2017-07-23T01:21:46.188Z,13.83
2017-07-23T01:24:14.343Z,20.37
2017-07-23T01:26:42.492Z,13.67
2017-07-23T01:29:10.636Z,13.10
2017-07-23T01:31:38.796Z,13.20
2017-07-23T01:34:07.533Z,17.23
2017-07-23T01:36:36.037Z,15.63
2017-07-23T01:39:04.164Z,12.30
2017-07-23T01:41:33.361Z,13.80
2017-07-23T01:44:01.505Z,12.13
2017-07-23T01:46:29.661Z,12.60
2017-07-23T01:48:57.851Z,14.50
2017-07-23T01:51:26.033Z,13.00
2017-07-23T01:53:54.354Z,14.40
2017-07-23T01:56:22.535Z,17.53
2017-07-23T01:58:50.663Z,13.10
2017-07-23T02:01:18.817Z,16.20
2017-07-23T02:03:46.972Z,20.87
2017-07-23T02:06:15.110Z,12.87
2017-07-23T02:08:43.268Z,15.03
2017-07-23T02:11:11.404Z,14.10
2017-07-23T02:13:39.535Z,23.47
2017-07-23T02:16:07.685Z,12.87
2017-07-23T02:18:36.351Z,16.20
2017-07-23T02:21:04.845Z,20.13
2017-07-23T02:23:32.980Z,18.80
2017-07-23T02:26:01.769Z,20.57
2017-07-23T02:28:29.941Z,21.17
2017-07-23T02:30:58.078Z,16.07
2017-07-23T02:33:26.342Z,17.70
2017-07-23T02:35:54.485Z,18.63
2017-07-23T02:38:23.411Z,28.83
2017-07-23T02:40:51.543Z,29.77
2017-07-23T02:43:19.672Z,28.67
2017-07-23T02:45:47.868Z,29.20
2017-07-23T02:48:16.734Z,30.73
2017-07-23T02:50:45.039Z,29.30
2017-07-23T02:53:13.176Z,37.57
2017-07-23T02:55:41.358Z,31.93
2017-07-23T02:58:09.486Z,36.10
2017-07-23T03:00:37.603Z,43.10
2017-07-23T03:03:05.759Z,31.00
2017-07-23T03:05:34.638Z,45.03
2017-07-23T03:08:02.809Z,31.43
2017-07-23T03:10:30.958Z,32.50
2017-07-23T03:12:59.879Z,35.20
2017-07-23T03:15:28.015Z,35.40
2017-07-23T03:17:56.300Z,33.20
2017-07-23T03:20:24.456Z,35.70
2017-07-23T03:22:52.603Z,34.40
2017-07-23T03:25:20.766Z,39.47
2017-07-23T03:27:48.900Z,42.60
2017-07-23T03:30:17.093Z,33.03
2017-07-23T03:32:45.262Z,39.93
2017-07-23T03:35:13.400Z,38.03
2017-07-23T03:37:41.669Z,41.07
2017-07-23T03:40:09.826Z,38.70
2017-07-23T03:42:38.745Z,40.50
2017-07-23T03:45:08.235Z,39.60
2017-07-23T03:47:36.410Z,42.00
2017-07-23T03:50:04.642Z,39.70
2017-07-23T03:52:32.776Z,36.60
2017-07-23T03:55:00.927Z,43.67
2017-07-23T03:57:29.056Z,39.80
2017-07-23T03:59:57.212Z,38.37
2017-07-23T04:02:25.355Z,38.37
2017-07-23T04:04:53.513Z,36.70
2017-07-23T04:07:21.651Z,36.63
2017-07-23T04:09:49.816Z,37.20
2017-07-23T04:12:17.968Z,32.50
2017-07-23T04:14:46.664Z,33.90
2017-07-23T04:17:14.822Z,34.07
2017-07-23T04:19:42.944Z,34.30
2017-07-23T04:22:11.152Z,31.40
2017-07-23T04:24:39.293Z,33.60
2017-07-23T04:27:07.465Z,35.63
2017-07-23T04:29:35.737Z,32.00
2017-07-23T04:32:03.907Z,29.40
2017-07-23T04:34:32.065Z,29.87
2017-07-23T04:37:00.191Z,32.87
2017-07-23T04:39:28.649Z,35.30
2017-07-23T04:41:56.885Z,33.30
2017-07-23T04:44:25.020Z,34.67
2017-07-23T04:46:53.191Z,37.57
2017-07-23T04:49:21.369Z,35.57
2017-07-23T04:51:49.538Z,34.23
2017-07-23T04:54:17.692Z,34.23
2017-07-23T04:56:46.039Z,33.87
2017-07-23T04:59:14.376Z,32.93
2017-07-23T05:01:42.488Z,35.30
2017-07-23T05:04:10.647Z,34.67
2017-07-23T05:06:39.286Z,33.70
2017-07-23T05:09:07.523Z,35.10
2017-07-23T05:11:35.654Z,30.37
2017-07-23T05:14:03.830Z,30.17
2017-07-23T05:16:31.965Z,28.77
2017-07-23T05:19:00.108Z,29.07
2017-07-23T05:21:28.251Z,30.17
2017-07-23T05:23:56.382Z,28.90
2017-07-23T05:26:24.529Z,31.30
2017-07-23T05:28:52.665Z,30.50
2017-07-23T05:31:20.867Z,29.23
2017-07-23T05:33:49.006Z,32.23
2017-07-23T05:36:17.908Z,31.90
2017-07-23T05:38:46.878Z,31.10
2017-07-23T05:41:14.997Z,29.03
2017-07-23T05:43:43.157Z,30.73
2017-07-23T05:46:11.288Z,30.27
2017-07-23T05:48:39.473Z,30.83
2017-07-23T05:51:08.099Z,31.33
2017-07-23T05:53:36.236Z,30.40
2017-07-23T05:56:04.395Z,32.87
2017-07-23T05:58:32.622Z,32.93
2017-07-23T06:01:01.552Z,30.00
2017-07-23T06:03:29.674Z,30.67
2017-07-23T06:05:57.858Z,30.60
2017-07-23T06:08:26.002Z,32.27
2017-07-23T06:10:54.129Z,31.53
2017-07-23T06:13:23.918Z,31.60
2017-07-23T06:15:52.062Z,29.73
2017-07-23T06:18:20.270Z,29.33
2017-07-23T06:20:48.436Z,31.77
2017-07-23T06:23:17.170Z,29.97
2017-07-23T06:25:45.318Z,32.07
2017-07-23T06:28:13.470Z,33.10
2017-07-23T06:30:41.685Z,27.13
2017-07-23T06:33:10.776Z,29.43
2017-07-23T06:35:38.913Z,30.73
2017-07-23T06:38:07.127Z,30.87
2017-07-23T06:40:35.294Z,31.37
2017-07-23T06:43:03.554Z,28.37
2017-07-23T06:45:31.723Z,29.47
2017-07-23T06:47:59.918Z,31.10
2017-07-23T06:50:28.484Z,31.00
2017-07-23T06:52:56.705Z,31.00
2017-07-23T06:55:24.837Z,34.90
2017-07-23T06:57:52.982Z,32.27
2017-07-23T07:00:21.525Z,29.13
2017-07-23T07:02:49.682Z,30.43
2017-07-23T07:05:17.849Z,32.07
2017-07-23T07:07:46.043Z,30.17
2017-07-23T07:10:14.180Z,28.10
2017-07-23T07:12:42.329Z,28.67
2017-07-23T07:15:10.603Z,28.53
2017-07-23T07:17:38.788Z,30.70
2017-07-23T07:20:07.054Z,30.10
2017-07-23T07:22:35.183Z,29.83
2017-07-23T07:25:03.321Z,29.00
2017-07-23T07:27:31.445Z,31.50
2017-07-23T07:29:59.600Z,31.13
2017-07-23T07:32:27.750Z,31.77
2017-07-23T07:34:56.296Z,29.77
2017-07-23T07:37:24.427Z,30.73
2017-07-23T07:39:52.618Z,31.10
2017-07-23T07:42:20.770Z,30.30
2017-07-23T07:44:48.921Z,30.53
2017-07-23T07:47:17.038Z,32.17
2017-07-23T07:49:45.210Z,31.53
2017-07-23T07:52:13.343Z,26.17
2017-07-23T07:54:42.049Z,29.10
2017-07-23T07:57:10.707Z,27.20
2017-07-23T07:59:38.990Z,28.83
2017-07-23T08:02:07.184Z,28.33
2017-07-23T08:04:36.079Z,27.23
2017-07-23T08:07:04.767Z,27.03
2017-07-23T08:09:32.924Z,26.40
2017-07-23T08:12:01.082Z,25.73
2017-07-23T08:14:29.211Z,24.83
2017-07-23T08:16:57.583Z,27.77
2017-07-23T08:19:25.742Z,24.23
2017-07-23T08:21:53.892Z,23.40
2017-07-23T08:24:22.360Z,23.83
2017-07-23T08:26:50.627Z,23.50
2017-07-23T08:29:18.788Z,23.30
2017-07-23T08:31:47.124Z,23.57
2017-07-23T08:34:16.121Z,23.60
2017-07-23T08:36:44.970Z,24.77
2017-07-23T08:39:13.141Z,22.30
2017-07-23T08:41:42.258Z,22.23
2017-07-23T08:44:10.452Z,20.20
2017-07-23T08:46:38.638Z,19.53
2017-07-23T08:49:06.777Z,19.50
2017-07-23T08:51:35.529Z,15.60
2017-07-23T08:54:03.664Z,15.30
2017-07-23T08:56:31.897Z,14.43
2017-07-23T08:59:00.787Z,13.17
2017-07-23T09:01:29.253Z,13.30
2017-07-23T09:03:57.396Z,13.20
2017-07-23T09:06:25.529Z,13.13
2017-07-23T09:08:53.711Z,11.37
2017-07-23T09:11:22.589Z,10.63
2017-07-23T09:13:50.748Z,10.00
2017-07-23T09:16:18.928Z,10.10
2017-07-23T09:18:47.125Z,9.90
2017-07-23T09:21:15.266Z,8.73
2017-07-23T09:23:43.401Z,7.97
2017-07-23T09:26:11.641Z,8.10
2017-07-23T09:28:39.784Z,7.63
2017-07-23T09:31:07.940Z,8.27
2017-07-23T09:33:36.330Z,8.23
2017-07-23T09:36:04.502Z,8.73
2017-07-23T09:38:33.358Z,7.97
2017-07-23T09:41:01.468Z,8.20
2017-07-23T09:43:29.612Z,8.03
2017-07-23T09:45:57.743Z,8.53
2017-07-23T09:48:26.063Z,8.27
2017-07-23T09:50:54.227Z,9.27
2017-07-23T09:53:22.413Z,8.27
2017-07-23T09:55:51.037Z,7.10
2017-07-23T09:58:19.170Z,6.70
2017-07-23T10:00:47.321Z,7.47
2017-07-23T10:03:15.451Z,6.53
2017-07-23T10:05:44.363Z,7.00
2017-07-23T10:08:12.474Z,6.87
2017-07-23T10:10:40.601Z,6.80
2017-07-23T10:13:08.730Z,7.40
2017-07-23T10:15:36.871Z,7.43
2017-07-23T10:18:05.067Z,7.10
2017-07-23T10:20:35.506Z,7.37
2017-07-23T10:23:03.673Z,7.17
2017-07-23T10:25:31.806Z,8.00
2017-07-23T10:28:00.738Z,7.27
2017-07-23T10:30:28.894Z,6.80
2017-07-23T10:32:57.330Z,7.70
2017-07-23T10:35:25.605Z,8.73
2017-07-23T10:37:54.509Z,8.20
2017-07-23T10:40:22.656Z,7.63
2017-07-23T10:42:50.862Z,7.80
2017-07-23T10:45:19.183Z,8.83
2017-07-23T10:47:47.342Z,8.37
2017-07-23T10:50:15.870Z,8.10
2017-07-23T10:52:44.020Z,8.80
2017-07-23T10:55:12.150Z,8.27
2017-07-23T10:57:40.330Z,8.20
2017-07-23T11:00:08.459Z,9.97
2017-07-23T11:02:37.091Z,8.63
2017-07-23T11:05:06.262Z,8.70
2017-07-23T11:07:34.517Z,7.90
2017-07-23T11:10:02.675Z,10.93
2017-07-23T11:12:30.819Z,9.43
2017-07-23T11:14:58.969Z,8.07
2017-07-23T11:17:27.133Z,8.70
2017-07-23T11:19:56.497Z,8.90
2017-07-23T11:22:27.828Z,9.10
2017-07-23T11:24:56.066Z,7.50
2017-07-23T11:27:24.657Z,6.87
2017-07-23T11:29:52.862Z,8.00
2017-07-23T11:32:21.043Z,8.10
2017-07-23T11:34:49.200Z,6.77
2017-07-23T11:37:18.148Z,7.53
2017-07-23T11:39:47.352Z,8.10
2017-07-23T11:42:15.658Z,6.90
2017-07-23T11:44:44.616Z,9.47
2017-07-23T11:47:12.742Z,7.60
2017-07-23T11:49:41.030Z,6.43
2017-07-23T11:52:09.383Z,7.20
2017-07-23T11:54:37.590Z,7.53
2017-07-23T11:57:05.734Z,7.30
2017-07-23T11:59:33.930Z,7.80
2017-07-23T12:02:02.092Z,6.93
2017-07-23T12:04:30.224Z,7.20
2017-07-23T12:06:58.454Z,6.40
2017-07-23T12:09:27.250Z,7.90
2017-07-23T12:11:55.521Z,8.30
2017-07-23T12:14:25.092Z,7.33
2017-07-23T12:16:53.291Z,7.40
2017-07-23T12:19:21.461Z,6.60
2017-07-23T12:21:50.381Z,7.03
2017-07-23T12:24:18.565Z,6.93
2017-07-23T12:26:47.477Z,6.40
2017-07-23T12:29:15.616Z,5.83
2017-07-23T12:31:43.751Z,5.57
2017-07-23T12:34:12.661Z,5.93
2017-07-23T12:36:41.547Z,7.47
2017-07-23T12:39:09.690Z,6.33
2017-07-23T12:41:37.857Z,5.80
2017-07-23T12:44:06.028Z,6.17
2017-07-23T12:46:34.239Z,5.90
2017-07-23T12:49:02.392Z,6.97
2017-07-23T12:51:30.562Z,5.80
2017-07-23T12:53:59.479Z,5.63
2017-07-23T12:56:27.697Z,6.07
2017-07-23T12:58:55.873Z,5.60
2017-07-23T13:01:24.015Z,5.90
2017-07-23T13:03:52.261Z,5.50
2017-07-23T13:06:20.420Z,5.80
2017-07-23T13:08:48.588Z,5.13
2017-07-23T13:11:17.051Z,5.67
2017-07-23T13:13:45.201Z,7.67
2017-07-23T13:16:13.520Z,5.67
2017-07-23T13:18:41.741Z,6.33
2017-07-23T13:21:09.890Z,7.17
2017-07-23T13:23:38.672Z,6.20
2017-07-23T13:26:06.835Z,5.00
2017-07-23T13:28:34.986Z,5.97
2017-07-23T13:31:03.107Z,8.10
2017-07-23T13:33:31.261Z,7.37
2017-07-23T13:35:59.396Z,10.13
2017-07-23T13:38:27.545Z,7.87
2017-07-23T13:40:55.695Z,5.57
2017-07-23T13:43:23.905Z,6.50
2017-07-23T13:45:52.073Z,5.70
2017-07-23T13:48:20.233Z,7.47
2017-07-23T13:50:48.548Z,6.87
2017-07-23T13:53:16.687Z,8.53
2017-07-23T13:55:44.825Z,7.20
2017-07-23T13:58:12.963Z,7.23
2017-07-23T14:00:41.125Z,9.03
2017-07-23T14:03:09.229Z,9.00
2017-07-23T14:05:37.378Z,8.60
2017-07-23T14:08:05.542Z,8.43
2017-07-23T14:10:33.694Z,9.10
2017-07-23T14:13:02.027Z,8.13
2017-07-23T14:15:30.161Z,6.80
2017-07-23T14:17:58.716Z,6.63
2017-07-23T14:20:26.830Z,5.47
2017-07-23T14:22:56.439Z,5.80
2017-07-23T14:25:24.565Z,4.67
2017-07-23T14:27:52.745Z,4.80
2017-07-23T14:30:21.682Z,5.13
2017-07-23T14:32:49.860Z,5.30
2017-07-23T14:35:18.710Z,5.20
2017-07-23T14:37:46.899Z,5.27
2017-07-23T14:40:15.551Z,5.53
2017-07-23T14:42:44.200Z,5.10
2017-07-23T14:45:12.319Z,5.60
2017-07-23T14:47:40.503Z,4.13
2017-07-23T14:50:08.644Z,5.03
2017-07-23T14:52:37.588Z,4.50
2017-07-23T14:55:06.630Z,4.87
2017-07-23T14:57:34.792Z,4.60
2017-07-23T15:00:02.935Z,4.53
2017-07-23T15:02:31.055Z,4.43
2017-07-23T15:04:59.188Z,3.93
2017-07-23T15:07:27.298Z,4.53
2017-07-23T15:09:55.462Z,3.77
2017-07-23T15:12:24.529Z,5.23
2017-07-23T15:14:53.470Z,3.87
2017-07-23T15:17:22.449Z,4.27
2017-07-23T15:19:50.582Z,4.23
2017-07-23T15:22:19.489Z,4.37
2017-07-23T15:24:47.694Z,6.93
2017-07-23T15:27:15.815Z,6.37
2017-07-23T15:29:44.437Z,6.50
2017-07-23T15:32:12.574Z,4.70
2017-07-23T15:34:41.492Z,5.10
2017-07-23T15:37:10.130Z,5.50
2017-07-23T15:39:38.263Z,5.83
2017-07-23T15:42:06.417Z,4.93
2017-07-23T15:44:34.682Z,5.13
2017-07-23T15:47:02.832Z,4.40
2017-07-23T15:49:30.984Z,6.63
2017-07-23T15:51:59.120Z,6.67
2017-07-23T15:54:27.261Z,7.23
2017-07-23T15:56:55.386Z,5.17
2017-07-23T15:59:23.566Z,7.73
2017-07-23T16:01:51.741Z,7.83
2017-07-23T16:04:19.878Z,5.70
2017-07-23T16:06:48.047Z,5.50
2017-07-23T16:09:16.176Z,4.80
2017-07-23T16:11:44.365Z,5.23
2017-07-23T16:14:12.474Z,5.50
2017-07-23T16:16:41.752Z,5.80
2017-07-23T16:19:09.899Z,5.53
2017-07-23T16:21:38.051Z,6.43
2017-07-23T16:24:06.269Z,5.30
2017-07-23T16:26:34.781Z,6.30
2017-07-23T16:29:02.964Z,6.50
2017-07-23T16:31:31.121Z,5.70
2017-07-23T16:33:59.223Z,6.53
2017-07-23T16:36:27.430Z,6.63
2017-07-23T16:38:55.561Z,6.53
2017-07-23T16:41:26.292Z,6.03
2017-07-23T16:43:54.471Z,6.50
2017-07-23T16:46:22.626Z,6.10
2017-07-23T16:48:50.954Z,6.33
2017-07-23T16:51:19.414Z,6.03
2017-07-23T16:53:47.532Z,6.63
2017-07-23T16:56:15.669Z,8.57
2017-07-23T16:58:43.971Z,7.17
2017-07-23T17:01:12.296Z,7.13
2017-07-23T17:03:40.472Z,8.37
2017-07-23T17:06:09.383Z,6.97
2017-07-23T17:08:37.528Z,6.87
2017-07-23T17:11:05.668Z,7.10
2017-07-23T17:13:33.889Z,7.20
2017-07-23T17:16:02.389Z,5.90
2017-07-23T17:18:32.260Z,6.10
2017-07-23T17:21:00.501Z,5.20
2017-07-23T17:23:28.667Z,6.00
2017-07-23T17:25:56.855Z,5.43
2017-07-23T17:28:24.991Z,4.70
2017-07-23T17:30:53.105Z,4.67
2017-07-23T17:33:21.629Z,4.37
2017-07-23T17:35:49.925Z,3.70
2017-07-23T17:38:18.067Z,4.03
2017-07-23T17:40:46.348Z,4.03
2017-07-23T17:43:14.494Z,5.10
2017-07-23T17:45:42.640Z,3.93
2017-07-23T17:48:10.809Z,3.37
2017-07-23T17:50:39.803Z,3.30
2017-07-23T17:53:07.949Z,3.00
2017-07-23T17:55:36.587Z,5.10
2017-07-23T17:58:04.859Z,3.83
2017-07-23T18:00:33.012Z,3.80
2017-07-23T18:03:01.518Z,3.60
2017-07-23T18:05:30.264Z,5.77
2017-07-23T18:07:58.431Z,2.60
2017-07-23T18:10:26.965Z,2.83
2017-07-23T18:12:55.116Z,6.10
2017-07-23T18:15:24.077Z,3.63
2017-07-23T18:17:52.215Z,4.13
2017-07-23T18:20:20.871Z,5.90
2017-07-23T18:22:49.880Z,6.20
2017-07-23T18:25:18.068Z,11.00
2017-07-23T18:27:46.230Z,6.50
2017-07-23T18:30:14.342Z,8.30
2017-07-23T18:32:42.541Z,5.17
2017-07-23T18:35:10.690Z,6.93
2017-07-23T18:37:38.830Z,4.53
2017-07-23T18:40:06.993Z,3.83
2017-07-23T18:42:35.131Z,6.60
2017-07-23T18:45:03.342Z,7.10
2017-07-23T18:47:31.534Z,5.60
2017-07-23T18:49:59.683Z,14.80
2017-07-23T18:52:27.849Z,4.93
2017-07-23T18:54:55.990Z,6.50
2017-07-23T18:57:24.198Z,11.70
2017-07-23T18:59:52.388Z,5.60
2017-07-23T19:02:21.331Z,7.27
2017-07-23T19:04:49.499Z,11.77
2017-07-23T19:07:17.662Z,8.17
2017-07-23T19:09:46.661Z,13.70
2017-07-23T19:12:14.816Z,18.20
2017-07-23T19:14:43.056Z,20.83
2017-07-23T19:17:12.055Z,16.60
2017-07-23T19:19:40.253Z,12.23
2017-07-23T19:22:08.463Z,9.57
2017-07-23T19:24:36.612Z,7.80
2017-07-23T19:27:04.727Z,10.23
2017-07-23T19:29:32.905Z,6.83
2017-07-23T19:32:01.074Z,6.43
2017-07-23T19:34:30.088Z,5.23
2017-07-23T19:36:58.294Z,8.13
2017-07-23T19:39:27.262Z,36.07
2017-07-23T19:41:55.429Z,62.80
2017-07-23T19:44:24.394Z,58.37
2017-07-23T19:46:52.643Z,23.27
2017-07-23T19:49:20.888Z,22.77
2017-07-23T19:51:49.093Z,46.90
2017-07-23T19:54:17.279Z,64.63
2017-07-23T19:56:45.462Z,31.97
2017-07-23T19:59:13.643Z,24.83
2017-07-23T20:01:41.773Z,20.43
2017-07-23T20:04:09.914Z,15.10
2017-07-23T20:06:38.087Z,9.80
2017-07-23T20:09:06.358Z,8.50
2017-07-23T20:11:34.695Z,8.30
2017-07-23T20:14:02.883Z,8.23
2017-07-23T20:16:31.014Z,7.77
2017-07-23T20:18:59.216Z,6.60
2017-07-23T20:21:27.358Z,8.40
2017-07-23T20:23:55.643Z,9.07
2017-07-23T20:26:23.817Z,10.53
2017-07-23T20:28:51.999Z,15.90
2017-07-23T20:31:20.912Z,14.93
2017-07-23T20:33:49.060Z,17.00
2017-07-23T20:36:17.232Z,24.47
2017-07-23T20:38:45.396Z,8.70
2017-07-23T20:41:13.590Z,30.83
2017-07-23T20:43:41.760Z,107.77
2017-07-23T20:46:09.947Z,60.43
2017-07-23T20:48:38.981Z,32.70
2017-07-23T20:51:07.118Z,18.23
2017-07-23T20:53:35.273Z,13.30
2017-07-23T20:56:03.413Z,12.70
2017-07-23T20:58:31.597Z,10.17
2017-07-23T21:00:59.740Z,8.03
2017-07-23T21:03:28.604Z,6.93
2017-07-23T21:05:56.777Z,6.60
2017-07-23T21:08:24.993Z,11.50
2017-07-23T21:10:53.157Z,7.73
2017-07-23T21:13:21.272Z,8.43
2017-07-23T21:15:49.418Z,7.50
2017-07-23T21:18:17.590Z,7.90
2017-07-23T21:20:45.729Z,6.87
2017-07-23T21:23:13.907Z,7.90
2017-07-23T21:25:42.135Z,7.67
2017-07-23T21:28:10.265Z,7.67
2017-07-23T21:30:38.626Z,7.97
2017-07-23T21:33:06.762Z,6.70
2017-07-23T21:35:35.382Z,8.73
2017-07-23T21:38:03.551Z,5.60
2017-07-23T21:40:31.684Z,6.00
2017-07-23T21:42:59.931Z,6.07
2017-07-23T21:45:28.099Z,6.10
2017-07-23T21:47:56.261Z,10.37
2017-07-23T21:50:24.377Z,61.53
2017-07-23T21:52:52.542Z,28.60
2017-07-23T21:55:20.708Z,7.93
2017-07-23T21:57:48.848Z,7.40
2017-07-23T22:00:17.188Z,10.13
2017-07-23T22:02:45.398Z,25.37
2017-07-23T22:05:13.523Z,29.13
2017-07-23T22:07:41.783Z,10.07
2017-07-23T22:10:09.898Z,10.40
2017-07-23T22:12:38.156Z,6.63
2017-07-23T22:15:06.266Z,9.03
2017-07-23T22:17:34.420Z,10.50
2017-07-23T22:20:02.596Z,9.50
2017-07-23T22:22:30.769Z,7.67
2017-07-23T22:24:58.917Z,5.60
2017-07-23T22:27:27.067Z,5.77
2017-07-23T22:29:55.978Z,8.13
2017-07-23T22:32:24.163Z,6.30
2017-07-23T22:34:52.314Z,7.20
2017-07-23T22:37:20.472Z,7.07
2017-07-23T22:39:48.598Z,7.10
2017-07-23T22:42:16.764Z,6.03
2017-07-23T22:44:44.904Z,8.37
2017-07-23T22:47:13.037Z,7.53
2017-07-23T22:49:41.211Z,6.73
2017-07-23T22:52:10.746Z,9.27
2017-07-23T22:54:39.655Z,7.53
2017-07-23T22:57:07.806Z,9.43
2017-07-23T22:59:35.961Z,10.93
2017-07-23T23:02:04.164Z,7.87
2017-07-23T23:04:32.298Z,7.77
2017-07-23T23:07:01.352Z,8.50
2017-07-23T23:09:29.475Z,9.00
2017-07-23T23:11:57.636Z,9.17
2017-07-23T23:14:25.786Z,12.60
2017-07-23T23:16:53.989Z,8.97
2017-07-23T23:19:22.169Z,10.73
2017-07-23T23:21:50.374Z,9.73
2017-07-23T23:24:18.584Z,9.70
2017-07-23T23:26:46.755Z,9.30
2017-07-23T23:29:14.969Z,9.40
2017-07-23T23:31:43.104Z,9.40
2017-07-23T23:34:11.226Z,13.03
2017-07-23T23:36:39.362Z,9.43
2017-07-23T23:39:07.625Z,10.20
2017-07-23T23:41:35.892Z,9.77
2017-07-23T23:44:04.049Z,8.73
2017-07-23T23:46:32.225Z,9.10
2017-07-23T23:49:00.432Z,10.97
2017-07-23T23:51:28.573Z,8.53
2017-07-23T23:53:56.769Z,9.47
2017-07-23T23:56:24.920Z,8.63
2017-07-23T23:58:53.046Z,20.00
